sensor_id;sensor_type;location;lat;lon;timestamp;pressure;altitude;pressure_sealevel;temperature;humidity
57574;BME280;68988;49.000;21.242;2024-03-02T00:00:35;98100.41;;;23.15;40.81
57574;BME280;68988;49.000;21.242;2024-03-02T00:03:01;98096.41;;;23.13;40.94
57574;BME280;68988;49.000;21.242;2024-03-02T00:05:27;98096.94;;;23.15;40.82
57574;BME280;68988;49.000;21.242;2024-03-02T00:07:54;98095.59;;;23.12;40.95
57574;BME280;68988;49.000;21.242;2024-03-02T00:10:22;98099.38;;;23.11;40.90
57574;BME280;68988;49.000;21.242;2024-03-02T00:12:53;98095.88;;;23.11;40.84
57574;BME280;68988;49.000;21.242;2024-03-02T00:17:54;98103.09;;;23.10;40.76
57574;BME280;68988;49.000;21.242;2024-03-02T00:20:22;98098.00;;;23.14;40.86
57574;BME280;68988;49.000;21.242;2024-03-02T00:22:48;98100.16;;;23.12;40.84
57574;BME280;68988;49.000;21.242;2024-03-02T00:25:13;98094.28;;;23.10;40.70
57574;BME280;68988;49.000;21.242;2024-03-02T00:27:39;98083.03;;;23.07;40.83
57574;BME280;68988;49.000;21.242;2024-03-02T00:33:08;98075.25;;;23.16;40.75
57574;BME280;68988;49.000;21.242;2024-03-02T00:35:33;98084.66;;;23.03;40.93
57574;BME280;68988;49.000;21.242;2024-03-02T00:38:04;98083.03;;;23.07;40.82
57574;BME280;68988;49.000;21.242;2024-03-02T00:40:30;98078.22;;;23.04;40.93
57574;BME280;68988;49.000;21.242;2024-03-02T00:42:55;98069.69;;;23.02;40.94
57574;BME280;68988;49.000;21.242;2024-03-02T00:45:21;98065.94;;;23.03;40.81
57574;BME280;68988;49.000;21.242;2024-03-02T00:47:46;98074.47;;;23.05;40.79
57574;BME280;68988;49.000;21.242;2024-03-02T00:50:13;98071.81;;;23.11;40.65
57574;BME280;68988;49.000;21.242;2024-03-02T00:52:40;98068.34;;;23.05;40.85
57574;BME280;68988;49.000;21.242;2024-03-02T00:55:05;98066.22;;;23.02;40.86
57574;BME280;68988;49.000;21.242;2024-03-02T00:57:33;98064.84;;;23.04;40.97
57574;BME280;68988;49.000;21.242;2024-03-02T01:00:00;98071.28;;;23.03;40.87
57574;BME280;68988;49.000;21.242;2024-03-02T01:02:25;98081.16;;;23.03;40.70
57574;BME280;68988;49.000;21.242;2024-03-02T01:04:50;98075.28;;;23.06;40.74
57574;BME280;68988;49.000;21.242;2024-03-02T01:07:16;98067.00;;;23.02;40.64
57574;BME280;68988;49.000;21.242;2024-03-02T01:09:41;98064.34;;;23.02;40.80
57574;BME280;68988;49.000;21.242;2024-03-02T01:12:07;98070.47;;;23.03;40.79
57574;BME280;68988;49.000;21.242;2024-03-02T01:14:32;98070.47;;;23.03;40.85
57574;BME280;68988;49.000;21.242;2024-03-02T01:16:57;98053.63;;;23.02;40.75
57574;BME280;68988;49.000;21.242;2024-03-02T01:19:23;98048.84;;;22.99;40.74
57574;BME280;68988;49.000;21.242;2024-03-02T01:21:48;98046.69;;;23.01;40.61
57574;BME280;68988;49.000;21.242;2024-03-02T01:24:15;98050.97;;;23.02;40.78
57574;BME280;68988;49.000;21.242;2024-03-02T01:26:41;98054.19;;;22.99;40.78
57574;BME280;68988;49.000;21.242;2024-03-02T01:29:07;98051.50;;;22.99;40.65
57574;BME280;68988;49.000;21.242;2024-03-02T01:31:32;98046.69;;;23.01;40.24
57574;BME280;68988;49.000;21.242;2024-03-02T01:33:57;98044.03;;;22.96;40.86
57574;BME280;68988;49.000;21.242;2024-03-02T01:36:23;98038.69;;;22.96;40.89
57574;BME280;68988;49.000;21.242;2024-03-02T01:38:49;98036.81;;;22.97;40.96
57574;BME280;68988;49.000;21.242;2024-03-02T01:41:14;98042.72;;;22.99;40.69
57574;BME280;68988;49.000;21.242;2024-03-02T01:43:39;98032.00;;;22.99;40.49
57574;BME280;68988;49.000;21.242;2024-03-02T01:46:05;98030.69;;;22.96;40.66
57574;BME280;68988;49.000;21.242;2024-03-02T01:48:30;98023.16;;;22.98;40.75
57574;BME280;68988;49.000;21.242;2024-03-02T01:50:56;98023.44;;;22.97;40.63
57574;BME280;68988;49.000;21.242;2024-03-02T01:53:22;98028.28;;;22.95;40.89
57574;BME280;68988;49.000;21.242;2024-03-02T01:55:48;98031.75;;;22.95;40.80
57574;BME280;68988;49.000;21.242;2024-03-02T01:58:14;98039.22;;;22.98;40.68
57574;BME280;68988;49.000;21.242;2024-03-02T02:00:39;98034.97;;;22.97;40.65
57574;BME280;68988;49.000;21.242;2024-03-02T02:03:05;98025.56;;;23.00;40.54
57574;BME280;68988;49.000;21.242;2024-03-02T02:05:31;98019.97;;;22.96;40.75
57574;BME280;68988;49.000;21.242;2024-03-02T02:07:57;98014.13;;;22.94;40.76
57574;BME280;68988;49.000;21.242;2024-03-02T02:10:23;98007.94;;;22.94;40.71
57574;BME280;68988;49.000;21.242;2024-03-02T02:16:17;98011.19;;;22.91;40.68
57574;BME280;68988;49.000;21.242;2024-03-02T02:18:42;98014.66;;;22.91;40.79
57574;BME280;68988;49.000;21.242;2024-03-02T02:21:08;98012.00;;;22.91;40.74
57574;BME280;68988;49.000;21.242;2024-03-02T02:23:33;98014.13;;;22.94;40.52
57574;BME280;68988;49.000;21.242;2024-03-02T02:25:59;98019.19;;;22.91;40.78
57574;BME280;68988;49.000;21.242;2024-03-02T02:28:24;98018.41;;;22.90;40.69
57574;BME280;68988;49.000;21.242;2024-03-02T02:30:50;98015.22;;;22.88;40.81
57574;BME280;68988;49.000;21.242;2024-03-02T02:33:15;98013.06;;;22.90;40.62
57574;BME280;68988;49.000;21.242;2024-03-02T02:35:40;98006.94;;;22.89;40.79
57574;BME280;68988;49.000;21.242;2024-03-02T02:38:06;98014.13;;;22.89;40.73
57574;BME280;68988;49.000;21.242;2024-03-02T02:40:31;98019.19;;;22.91;40.74
57574;BME280;68988;49.000;21.242;2024-03-02T02:42:57;98016.00;;;22.88;40.68
57574;BME280;68988;49.000;21.242;2024-03-02T02:45:24;98017.88;;;22.88;40.80
57574;BME280;68988;49.000;21.242;2024-03-02T02:47:49;98016.28;;;22.87;40.70
57574;BME280;68988;49.000;21.242;2024-03-02T02:50:15;98025.38;;;22.86;40.63
57574;BME280;68988;49.000;21.242;2024-03-02T02:52:41;98026.69;;;22.88;40.79
57574;BME280;68988;49.000;21.242;2024-03-02T02:55:09;98028.59;;;22.88;40.54
57574;BME280;68988;49.000;21.242;2024-03-02T02:57:35;98022.69;;;22.86;40.54
57574;BME280;68988;49.000;21.242;2024-03-02T03:00:04;98026.44;;;22.90;40.54
57574;BME280;68988;49.000;21.242;2024-03-02T03:02:30;98028.84;;;22.86;40.72
57574;BME280;68988;49.000;21.242;2024-03-02T03:04:56;98042.50;;;22.85;40.45
57574;BME280;68988;49.000;21.242;2024-03-02T03:07:22;98039.81;;;22.85;40.75
57574;BME280;68988;49.000;21.242;2024-03-02T03:09:48;98030.19;;;22.84;40.54
57574;BME280;68988;49.000;21.242;2024-03-02T03:12:13;98014.16;;;22.84;40.65
57574;BME280;68988;49.000;21.242;2024-03-02T03:14:40;98014.16;;;22.84;40.68
57574;BME280;68988;49.000;21.242;2024-03-02T03:17:06;98027.53;;;22.84;40.59
57574;BME280;68988;49.000;21.242;2024-03-02T03:19:33;98030.19;;;22.84;40.60
57574;BME280;68988;49.000;21.242;2024-03-02T03:21:58;98036.34;;;22.84;40.56
57574;BME280;68988;49.000;21.242;2024-03-02T03:24:24;98033.94;;;22.83;40.65
57574;BME280;68988;49.000;21.242;2024-03-02T03:26:49;98029.69;;;22.82;40.52
57574;BME280;68988;49.000;21.242;2024-03-02T03:29:14;98025.91;;;22.83;40.56
57574;BME280;68988;49.000;21.242;2024-03-02T03:31:40;98032.34;;;22.82;40.85
57574;BME280;68988;49.000;21.242;2024-03-02T03:34:05;98027.00;;;22.82;40.63
57574;BME280;68988;49.000;21.242;2024-03-02T03:36:30;98025.41;;;22.81;40.65
57574;BME280;68988;49.000;21.242;2024-03-02T03:38:56;98021.13;;;22.85;40.69
57574;BME280;68988;49.000;21.242;2024-03-02T03:41:21;98020.84;;;22.81;40.64
57574;BME280;68988;49.000;21.242;2024-03-02T03:43:46;98021.66;;;22.82;40.60
57574;BME280;68988;49.000;21.242;2024-03-02T03:46:12;98021.38;;;22.83;40.52
57574;BME280;68988;49.000;21.242;2024-03-02T03:48:37;98029.69;;;22.82;40.55
57574;BME280;68988;49.000;21.242;2024-03-02T03:51:02;98033.16;;;22.82;40.63
57574;BME280;68988;49.000;21.242;2024-03-02T03:53:28;98021.94;;;22.80;40.64
57574;BME280;68988;49.000;21.242;2024-03-02T03:55:53;98016.88;;;22.79;40.59
57574;BME280;68988;49.000;21.242;2024-03-02T03:58:18;98017.09;;;22.82;40.47
57574;BME280;68988;49.000;21.242;2024-03-02T04:00:45;98016.59;;;22.80;40.64
57574;BME280;68988;49.000;21.242;2024-03-02T04:03:11;98018.44;;;22.80;40.43
57574;BME280;68988;49.000;21.242;2024-03-02T04:05:36;98011.53;;;22.79;40.55
57574;BME280;68988;49.000;21.242;2024-03-02T04:08:01;98011.53;;;22.79;40.63
57574;BME280;68988;49.000;21.242;2024-03-02T04:10:27;98016.59;;;22.80;41.13
57574;BME280;68988;49.000;21.242;2024-03-02T04:12:52;98024.06;;;22.78;40.68
57574;BME280;68988;49.000;21.242;2024-03-02T04:15:17;98025.44;;;22.76;40.60
57574;BME280;68988;49.000;21.242;2024-03-02T04:17:44;98020.09;;;22.76;40.62
57574;BME280;68988;49.000;21.242;2024-03-02T04:20:09;98031.28;;;22.78;40.68
57574;BME280;68988;49.000;21.242;2024-03-02T04:22:37;98029.16;;;22.75;40.64
57574;BME280;68988;49.000;21.242;2024-03-02T04:25:03;98030.50;;;22.77;40.59
57574;BME280;68988;49.000;21.242;2024-03-02T04:27:30;98015.53;;;22.76;40.58
57574;BME280;68988;49.000;21.242;2024-03-02T04:29:55;98022.22;;;22.79;40.61
57574;BME280;68988;49.000;21.242;2024-03-02T04:32:20;98016.88;;;22.74;40.58
57574;BME280;68988;49.000;21.242;2024-03-02T04:34:46;98014.47;;;22.77;40.54
57574;BME280;68988;49.000;21.242;2024-03-02T04:37:11;98019.81;;;22.77;40.53
57574;BME280;68988;49.000;21.242;2024-03-02T04:39:37;98020.88;;;22.76;40.50
57574;BME280;68988;49.000;21.242;2024-03-02T04:42:03;98011.25;;;22.75;40.69
57574;BME280;68988;49.000;21.242;2024-03-02T04:44:28;98009.13;;;22.72;40.64
57574;BME280;68988;49.000;21.242;2024-03-02T04:46:54;98007.28;;;22.73;40.52
57574;BME280;68988;49.000;21.242;2024-03-02T04:49:19;97998.16;;;22.74;40.41
57574;BME280;68988;49.000;21.242;2024-03-02T04:51:44;98002.94;;;22.77;40.63
57574;BME280;68988;49.000;21.242;2024-03-02T04:54:10;97998.69;;;22.70;40.72
57574;BME280;68988;49.000;21.242;2024-03-02T04:56:35;97997.66;;;22.71;40.58
57574;BME280;68988;49.000;21.242;2024-03-02T04:59:10;98004.88;;;22.71;40.57
57574;BME280;68988;49.000;21.242;2024-03-02T05:01:36;98004.06;;;22.70;40.67
57574;BME280;68988;49.000;21.242;2024-03-02T05:04:01;98015.56;;;22.71;40.56
57574;BME280;68988;49.000;21.242;2024-03-02T05:06:26;98022.22;;;22.74;40.68
57574;BME280;68988;49.000;21.242;2024-03-02T05:08:52;98021.69;;;22.71;40.50
57574;BME280;68988;49.000;21.242;2024-03-02T05:11:17;98020.09;;;22.70;40.79
57574;BME280;68988;49.000;21.242;2024-03-02T05:14:03;98015.84;;;22.69;40.56
57574;BME280;68988;49.000;21.242;2024-03-02T05:16:29;98017.16;;;22.67;40.63
57574;BME280;68988;49.000;21.242;2024-03-02T05:18:54;98021.44;;;22.68;40.55
57574;BME280;68988;49.000;21.242;2024-03-02T05:21:20;98018.22;;;22.71;40.58
57574;BME280;68988;49.000;21.242;2024-03-02T05:23:46;98021.19;;;22.69;40.57
57574;BME280;68988;49.000;21.242;2024-03-02T05:26:11;98029.47;;;22.68;40.77
57574;BME280;68988;49.000;21.242;2024-03-02T05:28:39;98040.44;;;22.66;40.67
57574;BME280;68988;49.000;21.242;2024-03-02T05:31:04;98038.28;;;22.68;40.65
57574;BME280;68988;49.000;21.242;2024-03-02T05:33:30;98034.00;;;22.67;40.59
57574;BME280;68988;49.000;21.242;2024-03-02T05:35:58;98030.53;;;22.67;40.58
57574;BME280;68988;49.000;21.242;2024-03-02T05:38:23;98027.59;;;22.68;40.59
57574;BME280;68988;49.000;21.242;2024-03-02T05:40:49;98027.06;;;22.66;40.68
57574;BME280;68988;49.000;21.242;2024-03-02T05:43:14;98028.13;;;22.65;40.41
57574;BME280;68988;49.000;21.242;2024-03-02T05:45:40;98026.78;;;22.68;40.35
57574;BME280;68988;49.000;21.242;2024-03-02T05:48:07;98032.41;;;22.66;40.64
57574;BME280;68988;49.000;21.242;2024-03-02T05:50:33;98034.81;;;22.68;40.40
57574;BME280;68988;49.000;21.242;2024-03-02T05:52:58;98028.94;;;22.66;40.53
57574;BME280;68988;49.000;21.242;2024-03-02T05:55:24;98031.59;;;22.66;40.61
57574;BME280;68988;49.000;21.242;2024-03-02T05:57:49;98033.47;;;22.65;40.78
57574;BME280;68988;49.000;21.242;2024-03-02T06:00:28;98032.69;;;22.65;40.54
57574;BME280;68988;49.000;21.242;2024-03-02T06:02:53;98038.56;;;22.67;40.57
57574;BME280;68988;49.000;21.242;2024-03-02T06:05:19;98033.22;;;22.67;40.61
57574;BME280;68988;49.000;21.242;2024-03-02T06:07:44;98042.56;;;22.69;40.33
57574;BME280;68988;49.000;21.242;2024-03-02T06:10:09;98045.78;;;22.66;40.68
57574;BME280;68988;49.000;21.242;2024-03-02T06:12:36;98052.47;;;22.64;40.57
57574;BME280;68988;49.000;21.242;2024-03-02T06:15:01;98057.78;;;22.69;40.33
57574;BME280;68988;49.000;21.242;2024-03-02T06:17:27;98062.34;;;22.68;40.65
57574;BME280;68988;49.000;21.242;2024-03-02T06:19:52;98061.81;;;22.66;40.47
57574;BME280;68988;49.000;21.242;2024-03-02T06:22:17;98062.88;;;22.65;40.61
57574;BME280;68988;49.000;21.242;2024-03-02T06:24:44;98059.13;;;22.66;40.49
57574;BME280;68988;49.000;21.242;2024-03-02T06:27:09;98048.72;;;22.65;40.60
57574;BME280;68988;49.000;21.242;2024-03-02T06:29:35;98062.34;;;22.63;40.49
57574;BME280;68988;49.000;21.242;2024-03-02T06:32:00;98053.78;;;22.66;40.45
57574;BME280;68988;49.000;21.242;2024-03-02T06:34:26;98055.66;;;22.66;40.52
57574;BME280;68988;49.000;21.242;2024-03-02T06:36:51;98054.06;;;22.65;40.56
57574;BME280;68988;49.000;21.242;2024-03-02T06:39:17;98062.59;;;22.67;40.70
57574;BME280;68988;49.000;21.242;2024-03-02T06:41:42;98061.00;;;22.66;40.50
57574;BME280;68988;49.000;21.242;2024-03-02T06:44:08;98064.72;;;22.70;40.45
57574;BME280;68988;49.000;21.242;2024-03-02T06:46:33;98061.28;;;22.69;40.52
57574;BME280;68988;49.000;21.242;2024-03-02T06:48:58;98062.84;;;22.70;40.60
57574;BME280;68988;49.000;21.242;2024-03-02T06:51:24;98059.66;;;22.68;40.46
57574;BME280;68988;49.000;21.242;2024-03-02T06:53:49;98063.94;;;22.69;39.87
57574;BME280;68988;49.000;21.242;2024-03-02T06:56:15;98065.00;;;22.68;40.32
57574;BME280;68988;49.000;21.242;2024-03-02T06:58:40;98065.53;;;22.70;40.44
57574;BME280;68988;49.000;21.242;2024-03-02T07:01:05;98065.78;;;22.69;40.45
57574;BME280;68988;49.000;21.242;2024-03-02T07:03:31;98065.28;;;22.67;40.41
57574;BME280;68988;49.000;21.242;2024-03-02T07:05:57;98079.69;;;22.71;40.50
57574;BME280;68988;49.000;21.242;2024-03-02T07:08:23;98085.84;;;22.71;40.34
57574;BME280;68988;49.000;21.242;2024-03-02T07:10:48;98085.84;;;22.71;40.24
57574;BME280;68988;49.000;21.242;2024-03-02T07:13:14;98079.44;;;22.73;40.52
57574;BME280;68988;49.000;21.242;2024-03-02T07:15:39;98084.22;;;22.70;40.44
57574;BME280;68988;49.000;21.242;2024-03-02T07:18:23;98085.31;;;22.69;40.28
57574;BME280;68988;49.000;21.242;2024-03-02T07:20:49;98095.75;;;22.71;40.30
57574;BME280;68988;49.000;21.242;2024-03-02T07:23:15;98092.25;;;22.70;40.32
57574;BME280;68988;49.000;21.242;2024-03-02T07:25:40;98092.25;;;22.70;40.52
57574;BME280;68988;49.000;21.242;2024-03-02T07:28:05;98089.31;;;22.72;40.25
57574;BME280;68988;49.000;21.242;2024-03-02T07:30:33;98096.53;;;22.71;40.39
57574;BME280;68988;49.000;21.242;2024-03-02T07:32:59;98089.56;;;22.70;40.39
57574;BME280;68988;49.000;21.242;2024-03-02T07:35:25;98099.72;;;22.74;40.37
57574;BME280;68988;49.000;21.242;2024-03-02T07:37:53;98101.88;;;22.71;40.25
57574;BME280;68988;49.000;21.242;2024-03-02T07:40:19;98102.94;;;22.70;40.42
57574;BME280;68988;49.000;21.242;2024-03-02T07:42:45;98109.63;;;22.73;40.19
57574;BME280;68988;49.000;21.242;2024-03-02T07:45:10;98105.06;;;22.74;40.28
57574;BME280;68988;49.000;21.242;2024-03-02T07:47:36;98109.09;;;22.76;40.41
57574;BME280;68988;49.000;21.242;2024-03-02T07:50:02;98111.75;;;22.76;40.17
57574;BME280;68988;49.000;21.242;2024-03-02T07:52:28;98113.63;;;22.76;40.17
57574;BME280;68988;49.000;21.242;2024-03-02T07:54:54;98104.53;;;22.77;40.23
57574;BME280;68988;49.000;21.242;2024-03-02T07:57:20;98104.28;;;22.73;39.85
57574;BME280;68988;49.000;21.242;2024-03-02T07:59:45;98108.28;;;22.76;40.11
57574;BME280;68988;49.000;21.242;2024-03-02T08:02:12;98105.34;;;22.77;40.23
57574;BME280;68988;49.000;21.242;2024-03-02T08:04:37;98112.03;;;22.75;40.30
57574;BME280;68988;49.000;21.242;2024-03-02T08:07:03;98112.81;;;22.75;40.23
57574;BME280;68988;49.000;21.242;2024-03-02T08:09:29;98108.28;;;22.76;40.20
57574;BME280;68988;49.000;21.242;2024-03-02T08:11:55;98106.13;;;22.78;40.22
57574;BME280;68988;49.000;21.242;2024-03-02T08:14:21;98108.81;;;22.78;40.21
57574;BME280;68988;49.000;21.242;2024-03-02T08:16:47;98111.22;;;22.79;40.20
57574;BME280;68988;49.000;21.242;2024-03-02T08:19:12;98106.94;;;22.78;40.03
57574;BME280;68988;49.000;21.242;2024-03-02T08:21:37;98109.31;;;22.80;40.10
57574;BME280;68988;49.000;21.242;2024-03-02T08:24:03;98109.31;;;22.80;40.21
57574;BME280;68988;49.000;21.242;2024-03-02T08:26:28;98110.16;;;22.80;40.03
57574;BME280;68988;49.000;21.242;2024-03-02T08:28:56;98110.41;;;22.79;40.08
57574;BME280;68988;49.000;21.242;2024-03-02T08:31:22;98105.59;;;22.81;40.08
57574;BME280;68988;49.000;21.242;2024-03-02T08:33:47;98100.25;;;22.81;40.12
57574;BME280;68988;49.000;21.242;2024-03-02T08:36:12;98106.94;;;22.78;39.96
57574;BME280;68988;49.000;21.242;2024-03-02T08:38:38;98113.34;;;22.82;40.02
57574;BME280;68988;49.000;21.242;2024-03-02T08:41:04;98113.06;;;22.84;40.11
57574;BME280;68988;49.000;21.242;2024-03-02T08:43:30;98105.03;;;22.84;40.01
57574;BME280;68988;49.000;21.242;2024-03-02T08:45:55;98117.06;;;22.81;40.02
57574;BME280;68988;49.000;21.242;2024-03-02T08:48:20;98119.47;;;22.83;40.15
57574;BME280;68988;49.000;21.242;2024-03-02T08:50:46;98114.13;;;22.83;39.89
57574;BME280;68988;49.000;21.242;2024-03-02T08:53:11;98113.34;;;22.82;39.94
57574;BME280;68988;49.000;21.242;2024-03-02T08:55:37;98112.00;;;22.85;40.01
57574;BME280;68988;49.000;21.242;2024-03-02T08:58:02;98114.94;;;22.83;39.86
57574;BME280;68988;49.000;21.242;2024-03-02T09:00:28;98124.81;;;22.83;40.02
57574;BME280;68988;49.000;21.242;2024-03-02T09:02:54;98126.44;;;22.84;39.93
57574;BME280;68988;49.000;21.242;2024-03-02T09:05:19;98122.16;;;22.83;39.79
57574;BME280;68988;49.000;21.242;2024-03-02T09:07:45;98126.69;;;22.87;40.09
57574;BME280;68988;49.000;21.242;2024-03-02T09:10:10;98124.28;;;22.86;39.87
57574;BME280;68988;49.000;21.242;2024-03-02T09:12:36;98129.63;;;22.86;40.01
57574;BME280;68988;49.000;21.242;2024-03-02T09:15:02;98123.50;;;22.85;39.97
57574;BME280;68988;49.000;21.242;2024-03-02T09:17:28;98122.16;;;22.88;39.98
57574;BME280;68988;49.000;21.242;2024-03-02T09:19:54;98126.69;;;22.87;39.82
57574;BME280;68988;49.000;21.242;2024-03-02T09:22:19;98129.34;;;22.87;39.97
57574;BME280;68988;49.000;21.242;2024-03-02T09:24:45;98128.03;;;22.90;39.76
57574;BME280;68988;49.000;21.242;2024-03-02T09:27:10;98128.28;;;22.88;39.76
57574;BME280;68988;49.000;21.242;2024-03-02T09:29:36;98135.25;;;22.89;39.60
57574;BME280;68988;49.000;21.242;2024-03-02T09:32:02;98131.47;;;22.91;39.77
57574;BME280;68988;49.000;21.242;2024-03-02T09:34:27;98130.97;;;22.88;39.84
57574;BME280;68988;49.000;21.242;2024-03-02T09:36:53;98125.34;;;22.90;39.85
57574;BME280;68988;49.000;21.242;2024-03-02T09:39:18;98132.31;;;22.91;39.88
57574;BME280;68988;49.000;21.242;2024-03-02T09:41:43;98133.09;;;22.92;39.84
57574;BME280;68988;49.000;21.242;2024-03-02T09:44:09;98143.78;;;22.92;39.84
57574;BME280;68988;49.000;21.242;2024-03-02T09:46:35;98131.75;;;22.94;39.69
57574;BME280;68988;49.000;21.242;2024-03-02T09:49:02;98129.88;;;22.95;39.68
57574;BME280;68988;49.000;21.242;2024-03-02T09:51:27;98134.44;;;22.94;39.72
57574;BME280;68988;49.000;21.242;2024-03-02T09:53:54;98132.28;;;22.96;39.72
57574;BME280;68988;49.000;21.242;2024-03-02T09:56:21;98127.19;;;22.95;39.72
57574;BME280;68988;49.000;21.242;2024-03-02T09:58:47;98124.78;;;22.98;39.52
57574;BME280;68988;49.000;21.242;2024-03-02T10:01:12;98131.22;;;22.97;39.53
57574;BME280;68988;49.000;21.242;2024-03-02T10:03:38;98133.06;;;22.97;39.71
57574;BME280;68988;49.000;21.242;2024-03-02T10:06:23;98131.19;;;23.02;39.65
57574;BME280;68988;49.000;21.242;2024-03-02T10:08:49;98128.00;;;22.95;39.67
57574;BME280;68988;49.000;21.242;2024-03-02T10:14:09;98126.91;;;23.01;39.67
57574;BME280;68988;49.000;21.242;2024-03-02T10:16:44;98121.59;;;22.96;39.58
57574;BME280;68988;49.000;21.242;2024-03-02T10:21:54;98120.50;;;23.02;39.70
57574;BME280;68988;49.000;21.242;2024-03-02T10:24:21;98123.72;;;22.99;39.64
57574;BME280;68988;49.000;21.242;2024-03-02T10:26:47;98125.88;;;22.97;39.69
57574;BME280;68988;49.000;21.242;2024-03-02T10:29:12;98122.09;;;22.98;39.65
57574;BME280;68988;49.000;21.242;2024-03-02T10:31:39;98111.94;;;22.95;39.64
57574;BME280;68988;49.000;21.242;2024-03-02T10:34:06;98116.75;;;23.03;39.51
57574;BME280;68988;49.000;21.242;2024-03-02T10:36:33;98115.66;;;23.04;39.52
57574;BME280;68988;49.000;21.242;2024-03-02T10:39:02;98116.22;;;23.01;39.58
57574;BME280;68988;49.000;21.242;2024-03-02T10:41:32;98114.09;;;23.03;39.74
57574;BME280;68988;49.000;21.242;2024-03-02T10:43:59;98123.94;;;23.03;39.58
57574;BME280;68988;49.000;21.242;2024-03-02T10:46:28;98120.47;;;23.07;39.51
57574;BME280;68988;49.000;21.242;2024-03-02T10:48:55;98125.03;;;23.07;39.42
57574;BME280;68988;49.000;21.242;2024-03-02T10:51:21;98119.94;;;23.05;39.50
57574;BME280;68988;49.000;21.242;2024-03-02T10:53:46;98108.72;;;23.03;39.42
57574;BME280;68988;49.000;21.242;2024-03-02T10:56:16;98122.06;;;23.14;39.32
57574;BME280;68988;49.000;21.242;2024-03-02T10:58:50;98115.66;;;23.15;39.28
57574;BME280;68988;49.000;21.242;2024-03-02T11:01:17;98111.91;;;23.11;39.29
57574;BME280;68988;49.000;21.242;2024-03-02T11:03:44;98113.25;;;23.13;39.47
57574;BME280;68988;49.000;21.242;2024-03-02T11:06:11;98106.84;;;23.14;39.32
57574;BME280;68988;49.000;21.242;2024-03-02T11:08:38;98106.56;;;23.16;39.36
57574;BME280;68988;49.000;21.242;2024-03-02T11:11:15;98092.88;;;23.22;39.27
57574;BME280;68988;49.000;21.242;2024-03-02T11:13:42;98101.47;;;23.19;39.39
57574;BME280;68988;49.000;21.242;2024-03-02T11:16:20;98098.00;;;23.19;39.24
57574;BME280;68988;49.000;21.242;2024-03-02T11:18:52;98099.06;;;23.18;39.29
57574;BME280;68988;49.000;21.242;2024-03-02T11:21:18;98088.38;;;23.18;39.36
57574;BME280;68988;49.000;21.242;2024-03-02T11:23:43;98087.25;;;23.24;39.28
57574;BME280;68988;49.000;21.242;2024-03-02T11:28:44;98084.63;;;23.19;39.17
57574;BME280;68988;49.000;21.242;2024-03-02T11:31:09;98088.09;;;23.19;39.28
57574;BME280;68988;49.000;21.242;2024-03-02T11:33:34;98083.53;;;23.20;39.16
57574;BME280;68988;49.000;21.242;2024-03-02T11:36:00;98080.84;;;23.20;39.32
57574;BME280;68988;49.000;21.242;2024-03-02T11:38:28;98079.78;;;23.21;39.15
57574;BME280;68988;49.000;21.242;2024-03-02T11:40:54;98081.91;;;23.24;38.97
57574;BME280;68988;49.000;21.242;2024-03-02T11:43:20;98088.88;;;23.25;39.21
57574;BME280;68988;49.000;21.242;2024-03-02T11:45:46;98074.94;;;23.23;39.04
57574;BME280;68988;49.000;21.242;2024-03-02T11:48:14;98075.78;;;23.23;39.21
57574;BME280;68988;49.000;21.242;2024-03-02T11:50:49;98072.81;;;23.25;39.13
57574;BME280;68988;49.000;21.242;2024-03-02T11:53:15;98075.78;;;23.23;39.34
57574;BME280;68988;49.000;21.242;2024-03-02T11:55:41;98078.16;;;23.25;39.16
57574;BME280;68988;49.000;21.242;2024-03-02T11:58:07;98077.63;;;23.23;39.10
57574;BME280;68988;49.000;21.242;2024-03-02T12:00:32;98078.72;;;23.22;39.11
57574;BME280;68988;49.000;21.242;2024-03-02T12:03:03;98069.59;;;23.23;39.40
57574;BME280;68988;49.000;21.242;2024-03-02T12:05:29;98074.16;;;23.22;39.24
57574;BME280;68988;49.000;21.242;2024-03-02T12:08:07;98074.41;;;23.26;39.19
57574;BME280;68988;49.000;21.242;2024-03-02T12:10:34;98077.34;;;23.24;39.07
57574;BME280;68988;49.000;21.242;2024-03-02T12:13:02;98067.47;;;23.25;39.12
57574;BME280;68988;49.000;21.242;2024-03-02T12:15:29;98070.69;;;23.22;39.25
57574;BME280;68988;49.000;21.242;2024-03-02T12:17:58;98065.34;;;23.22;39.25
57574;BME280;68988;49.000;21.242;2024-03-02T12:20:26;98067.75;;;23.23;39.24
57574;BME280;68988;49.000;21.242;2024-03-02T12:22:53;98069.59;;;23.23;39.18
57574;BME280;68988;49.000;21.242;2024-03-02T12:25:23;98073.06;;;23.29;39.02
57574;BME280;68988;49.000;21.242;2024-03-02T12:27:51;98069.88;;;23.27;39.10
57574;BME280;68988;49.000;21.242;2024-03-02T12:30:17;98069.59;;;23.28;39.08
57574;BME280;68988;49.000;21.242;2024-03-02T12:32:44;98070.66;;;23.27;38.97
57574;BME280;68988;49.000;21.242;2024-03-02T12:35:12;98068.53;;;23.24;39.17
57574;BME280;68988;49.000;21.242;2024-03-02T12:37:49;98070.66;;;23.27;39.20
57574;BME280;68988;49.000;21.242;2024-03-02T12:40:17;98069.59;;;23.23;39.17
57574;BME280;68988;49.000;21.242;2024-03-02T12:42:44;98068.53;;;23.24;39.15
57574;BME280;68988;49.000;21.242;2024-03-02T12:45:10;98072.00;;;23.24;39.23
57574;BME280;68988;49.000;21.242;2024-03-02T12:47:36;98074.41;;;23.26;38.93
57574;BME280;68988;49.000;21.242;2024-03-02T12:50:03;98061.84;;;23.21;39.08
57574;BME280;68988;49.000;21.242;2024-03-02T12:52:30;98072.81;;;23.20;39.15
57574;BME280;68988;49.000;21.242;2024-03-02T12:54:56;98075.50;;;23.25;39.14
57574;BME280;68988;49.000;21.242;2024-03-02T12:57:31;98066.66;;;23.24;39.26
57574;BME280;68988;49.000;21.242;2024-03-02T13:00:02;98077.34;;;23.24;39.10
57574;BME280;68988;49.000;21.242;2024-03-02T13:02:34;98069.59;;;23.23;39.13